sensor_id;sensor_type;location;lat;lon;timestamp;P1;durP1;ratioP1;P2;durP2;ratioP2
68854;SDS011;69984;-43.570;172.580;2023-05-10T00:00:55;2.75;;;0.25;;
68854;SDS011;69984;-43.570;172.580;2023-05-10T00:03:22;1.95;;;0.20;;
68854;SDS011;69984;-43.570;172.580;2023-05-10T00:05:49;0.38;;;0.20;;
68854;SDS011;69984;-43.570;172.580;2023-05-10T00:08:16;4.43;;;0.45;;
68854;SDS011;69984;-43.570;172.580;2023-05-10T00:10:43;4.93;;;0.47;;
68854;SDS011;69984;-43.570;172.580;2023-05-10T00:13:11;0.85;;;0.30;;
68854;SDS011;69984;-43.570;172.580;2023-05-10T00:15:38;2.05;;;0.13;;
68854;SDS011;69984;-43.570;172.580;2023-05-10T00:18:05;0.30;;;0.10;;
68854;SDS011;69984;-43.570;172.580;2023-05-10T00:20:32;0.10;;;0.10;;
68854;SDS011;69984;-43.570;172.580;2023-05-10T00:22:59;0.95;;;0.08;;
68854;SDS011;69984;-43.570;172.580;2023-05-10T00:25:27;1.27;;;0.82;;
68854;SDS011;69984;-43.570;172.580;2023-05-10T00:27:54;1.70;;;0.20;;
68854;SDS011;69984;-43.570;172.580;2023-05-10T00:30:22;0.10;;;0.00;;
68854;SDS011;69984;-43.570;172.580;2023-05-10T00:32:50;0.10;;;0.03;;
68854;SDS011;69984;-43.570;172.580;2023-05-10T00:35:17;1.05;;;0.10;;
68854;SDS011;69984;-43.570;172.580;2023-05-10T00:37:44;2.47;;;0.65;;
68854;SDS011;69984;-43.570;172.580;2023-05-10T00:40:12;1.60;;;0.20;;
68854;SDS011;69984;-43.570;172.580;2023-05-10T00:42:40;2.67;;;0.25;;
68854;SDS011;69984;-43.570;172.580;2023-05-10T00:45:07;2.40;;;0.30;;
68854;SDS011;69984;-43.570;172.580;2023-05-10T00:47:34;0.75;;;0.10;;
68854;SDS011;69984;-43.570;172.580;2023-05-10T00:50:02;2.17;;;0.40;;
68854;SDS011;69984;-43.570;172.580;2023-05-10T00:52:30;1.70;;;0.30;;
68854;SDS011;69984;-43.570;172.580;2023-05-10T00:54:58;0.47;;;0.20;;
68854;SDS011;69984;-43.570;172.580;2023-05-10T00:57:26;0.50;;;0.10;;
68854;SDS011;69984;-43.570;172.580;2023-05-10T00:59:53;4.18;;;0.90;;
68854;SDS011;69984;-43.570;172.580;2023-05-10T01:02:20;1.52;;;0.10;;
68854;SDS011;69984;-43.570;172.580;2023-05-10T01:04:47;1.25;;;0.10;;
68854;SDS011;69984;-43.570;172.580;2023-05-10T01:07:15;1.75;;;0.10;;
68854;SDS011;69984;-43.570;172.580;2023-05-10T01:09:42;1.45;;;0.10;;
68854;SDS011;69984;-43.570;172.580;2023-05-10T01:12:09;1.33;;;0.30;;
68854;SDS011;69984;-43.570;172.580;2023-05-10T01:14:37;0.30;;;0.10;;
68854;SDS011;69984;-43.570;172.580;2023-05-10T01:17:05;2.80;;;0.38;;
68854;SDS011;69984;-43.570;172.580;2023-05-10T01:19:34;1.00;;;0.20;;
68854;SDS011;69984;-43.570;172.580;2023-05-10T01:38:59;3.63;;;0.40;;
68854;SDS011;69984;-43.570;172.580;2023-05-10T01:46:44;3.65;;;0.60;;
68854;SDS011;69984;-43.570;172.580;2023-05-10T01:49:26;3.28;;;0.30;;
68854;SDS011;69984;-43.570;172.580;2023-05-10T01:51:59;2.85;;;0.30;;
68854;SDS011;69984;-43.570;172.580;2023-05-10T01:54:34;1.00;;;0.20;;
68854;SDS011;69984;-43.570;172.580;2023-05-10T01:57:05;0.50;;;0.20;;
68854;SDS011;69984;-43.570;172.580;2023-05-10T01:59:35;1.73;;;0.30;;
68854;SDS011;69984;-43.570;172.580;2023-05-10T02:02:06;0.00;;;0.00;;
68854;SDS011;69984;-43.570;172.580;2023-05-10T02:04:38;6.43;;;0.30;;
68854;SDS011;69984;-43.570;172.580;2023-05-10T02:07:07;0.55;;;0.13;;
68854;SDS011;69984;-43.570;172.580;2023-05-10T02:09:35;0.47;;;0.10;;
68854;SDS011;69984;-43.570;172.580;2023-05-10T02:12:04;2.53;;;0.20;;
68854;SDS011;69984;-43.570;172.580;2023-05-10T02:14:35;1.00;;;0.20;;
68854;SDS011;69984;-43.570;172.580;2023-05-10T02:17:04;0.52;;;0.30;;
68854;SDS011;69984;-43.570;172.580;2023-05-10T02:19:34;4.22;;;0.50;;
68854;SDS011;69984;-43.570;172.580;2023-05-10T02:22:05;0.10;;;0.10;;
68854;SDS011;69984;-43.570;172.580;2023-05-10T02:24:33;9.10;;;0.40;;
68854;SDS011;69984;-43.570;172.580;2023-05-10T02:27:03;0.60;;;0.40;;
68854;SDS011;69984;-43.570;172.580;2023-05-10T02:29:31;1.67;;;0.60;;
68854;SDS011;69984;-43.570;172.580;2023-05-10T02:31:59;0.57;;;0.30;;
68854;SDS011;69984;-43.570;172.580;2023-05-10T02:34:27;2.22;;;0.22;;
68854;SDS011;69984;-43.570;172.580;2023-05-10T02:36:55;1.13;;;0.30;;
68854;SDS011;69984;-43.570;172.580;2023-05-10T02:39:24;0.20;;;0.10;;
68854;SDS011;69984;-43.570;172.580;2023-05-10T02:41:54;0.20;;;0.10;;
68854;SDS011;69984;-43.570;172.580;2023-05-10T02:44:23;2.50;;;0.20;;
68854;SDS011;69984;-43.570;172.580;2023-05-10T02:46:52;0.57;;;0.35;;
68854;SDS011;69984;-43.570;172.580;2023-05-10T02:49:21;0.63;;;0.60;;
68854;SDS011;69984;-43.570;172.580;2023-05-10T02:51:49;1.50;;;0.63;;
68854;SDS011;69984;-43.570;172.580;2023-05-10T02:54:23;3.85;;;0.75;;
68854;SDS011;69984;-43.570;172.580;2023-05-10T02:56:58;1.70;;;0.65;;
68854;SDS011;69984;-43.570;172.580;2023-05-10T02:59:27;2.53;;;1.17;;
68854;SDS011;69984;-43.570;172.580;2023-05-10T03:01:54;1.88;;;0.90;;
68854;SDS011;69984;-43.570;172.580;2023-05-10T03:04:21;2.85;;;1.23;;
68854;SDS011;69984;-43.570;172.580;2023-05-10T03:06:48;4.78;;;1.60;;
68854;SDS011;69984;-43.570;172.580;2023-05-10T03:09:16;2.47;;;1.00;;
68854;SDS011;69984;-43.570;172.580;2023-05-10T03:14:34;12.23;;;1.50;;
68854;SDS011;69984;-43.570;172.580;2023-05-10T03:20:16;1.38;;;1.05;;
68854;SDS011;69984;-43.570;172.580;2023-05-10T03:23:22;2.38;;;0.93;;
68854;SDS011;69984;-43.570;172.580;2023-05-10T03:26:00;2.13;;;0.30;;
68854;SDS011;69984;-43.570;172.580;2023-05-10T03:28:28;0.95;;;0.20;;
68854;SDS011;69984;-43.570;172.580;2023-05-10T03:30:57;1.23;;;0.30;;
68854;SDS011;69984;-43.570;172.580;2023-05-10T03:33:25;0.10;;;0.10;;
68854;SDS011;69984;-43.570;172.580;2023-05-10T03:35:53;0.35;;;0.00;;
68854;SDS011;69984;-43.570;172.580;2023-05-10T03:38:20;0.28;;;0.10;;
68854;SDS011;69984;-43.570;172.580;2023-05-10T03:40:47;1.60;;;0.03;;
68854;SDS011;69984;-43.570;172.580;2023-05-10T03:43:14;0.75;;;0.15;;
68854;SDS011;69984;-43.570;172.580;2023-05-10T03:45:41;0.00;;;0.00;;
68854;SDS011;69984;-43.570;172.580;2023-05-10T03:48:08;0.00;;;0.00;;
68854;SDS011;69984;-43.570;172.580;2023-05-10T03:50:35;0.20;;;0.00;;
68854;SDS011;69984;-43.570;172.580;2023-05-10T03:53:02;0.30;;;0.03;;
68854;SDS011;69984;-43.570;172.580;2023-05-10T03:55:29;0.65;;;0.50;;
68854;SDS011;69984;-43.570;172.580;2023-05-10T03:58:00;0.20;;;0.00;;
68854;SDS011;69984;-43.570;172.580;2023-05-10T04:00:27;0.52;;;0.00;;
68854;SDS011;69984;-43.570;172.580;2023-05-10T04:02:54;0.38;;;0.10;;
68854;SDS011;69984;-43.570;172.580;2023-05-10T04:05:21;0.57;;;0.03;;
68854;SDS011;69984;-43.570;172.580;2023-05-10T04:07:48;0.00;;;0.00;;
68854;SDS011;69984;-43.570;172.580;2023-05-10T04:10:16;0.05;;;0.00;;
68854;SDS011;69984;-43.570;172.580;2023-05-10T04:12:43;0.10;;;0.10;;
68854;SDS011;69984;-43.570;172.580;2023-05-10T04:15:10;3.20;;;0.10;;
68854;SDS011;69984;-43.570;172.580;2023-05-10T04:17:38;2.15;;;0.30;;
68854;SDS011;69984;-43.570;172.580;2023-05-10T04:20:05;0.50;;;0.10;;
68854;SDS011;69984;-43.570;172.580;2023-05-10T04:22:33;0.70;;;0.22;;
68854;SDS011;69984;-43.570;172.580;2023-05-10T04:25:00;4.55;;;0.30;;
68854;SDS011;69984;-43.570;172.580;2023-05-10T04:27:27;0.88;;;0.30;;
68854;SDS011;69984;-43.570;172.580;2023-05-10T04:29:54;0.93;;;0.38;;
68854;SDS011;69984;-43.570;172.580;2023-05-10T04:32:21;0.55;;;0.30;;
68854;SDS011;69984;-43.570;172.580;2023-05-10T04:34:49;0.63;;;0.30;;
68854;SDS011;69984;-43.570;172.580;2023-05-10T04:37:17;0.65;;;0.20;;
68854;SDS011;69984;-43.570;172.580;2023-05-10T04:39:45;3.80;;;0.20;;
68854;SDS011;69984;-43.570;172.580;2023-05-10T04:42:12;1.08;;;0.63;;
68854;SDS011;69984;-43.570;172.580;2023-05-10T04:44:40;3.95;;;0.40;;
68854;SDS011;69984;-43.570;172.580;2023-05-10T04:47:08;1.42;;;0.50;;
68854;SDS011;69984;-43.570;172.580;2023-05-10T04:49:35;2.10;;;0.60;;
68854;SDS011;69984;-43.570;172.580;2023-05-10T04:52:02;0.85;;;0.47;;
68854;SDS011;69984;-43.570;172.580;2023-05-10T04:54:29;2.20;;;0.40;;
68854;SDS011;69984;-43.570;172.580;2023-05-10T04:56:56;1.27;;;0.30;;
68854;SDS011;69984;-43.570;172.580;2023-05-10T04:59:26;1.85;;;0.40;;
68854;SDS011;69984;-43.570;172.580;2023-05-10T05:01:54;3.15;;;0.80;;
68854;SDS011;69984;-43.570;172.580;2023-05-10T05:04:21;5.35;;;0.55;;
68854;SDS011;69984;-43.570;172.580;2023-05-10T05:06:49;0.47;;;0.47;;
68854;SDS011;69984;-43.570;172.580;2023-05-10T05:09:16;1.17;;;0.60;;
68854;SDS011;69984;-43.570;172.580;2023-05-10T05:11:43;0.85;;;0.40;;
68854;SDS011;69984;-43.570;172.580;2023-05-10T05:14:11;0.47;;;0.40;;
68854;SDS011;69984;-43.570;172.580;2023-05-10T05:16:38;1.88;;;0.40;;
68854;SDS011;69984;-43.570;172.580;2023-05-10T05:19:05;1.95;;;0.50;;
68854;SDS011;69984;-43.570;172.580;2023-05-10T05:21:32;3.75;;;0.50;;
68854;SDS011;69984;-43.570;172.580;2023-05-10T05:24:00;1.02;;;0.45;;
68854;SDS011;69984;-43.570;172.580;2023-05-10T05:26:27;0.63;;;0.40;;
68854;SDS011;69984;-43.570;172.580;2023-05-10T05:28:54;7.13;;;1.40;;
68854;SDS011;69984;-43.570;172.580;2023-05-10T05:31:21;2.95;;;1.20;;
68854;SDS011;69984;-43.570;172.580;2023-05-10T05:33:48;1.35;;;0.75;;
68854;SDS011;69984;-43.570;172.580;2023-05-10T05:36:15;5.78;;;0.60;;
68854;SDS011;69984;-43.570;172.580;2023-05-10T05:38:42;5.13;;;0.80;;
68854;SDS011;69984;-43.570;172.580;2023-05-10T05:41:09;5.32;;;0.50;;
68854;SDS011;69984;-43.570;172.580;2023-05-10T05:43:36;2.05;;;0.40;;
68854;SDS011;69984;-43.570;172.580;2023-05-10T05:46:04;4.30;;;0.60;;
68854;SDS011;69984;-43.570;172.580;2023-05-10T05:48:31;14.75;;;0.70;;
68854;SDS011;69984;-43.570;172.580;2023-05-10T05:50:58;3.30;;;0.50;;
68854;SDS011;69984;-43.570;172.580;2023-05-10T05:53:25;0.47;;;0.40;;
68854;SDS011;69984;-43.570;172.580;2023-05-10T05:55:54;3.05;;;0.70;;
68854;SDS011;69984;-43.570;172.580;2023-05-10T05:58:23;0.88;;;0.40;;
68854;SDS011;69984;-43.570;172.580;2023-05-10T06:00:51;2.10;;;0.88;;
68854;SDS011;69984;-43.570;172.580;2023-05-10T06:03:18;2.35;;;0.77;;
68854;SDS011;69984;-43.570;172.580;2023-05-10T06:05:45;9.25;;;3.45;;
68854;SDS011;69984;-43.570;172.580;2023-05-10T06:08:13;8.57;;;4.78;;
68854;SDS011;69984;-43.570;172.580;2023-05-10T06:10:40;5.50;;;3.05;;
68854;SDS011;69984;-43.570;172.580;2023-05-10T06:13:07;7.82;;;3.03;;
68854;SDS011;69984;-43.570;172.580;2023-05-10T06:15:34;7.43;;;4.28;;
68854;SDS011;69984;-43.570;172.580;2023-05-10T06:18:01;7.13;;;4.60;;
68854;SDS011;69984;-43.570;172.580;2023-05-10T06:20:29;15.48;;;5.75;;
68854;SDS011;69984;-43.570;172.580;2023-05-10T06:22:57;5.63;;;5.13;;
68854;SDS011;69984;-43.570;172.580;2023-05-10T06:25:24;7.18;;;4.10;;
68854;SDS011;69984;-43.570;172.580;2023-05-10T06:27:51;5.28;;;3.95;;
68854;SDS011;69984;-43.570;172.580;2023-05-10T06:30:23;6.88;;;3.78;;
68854;SDS011;69984;-43.570;172.580;2023-05-10T06:32:53;6.85;;;4.10;;
68854;SDS011;69984;-43.570;172.580;2023-05-10T06:35:21;5.10;;;3.72;;
68854;SDS011;69984;-43.570;172.580;2023-05-10T06:37:48;5.28;;;4.20;;
68854;SDS011;69984;-43.570;172.580;2023-05-10T06:40:16;5.85;;;3.90;;
68854;SDS011;69984;-43.570;172.580;2023-05-10T06:42:44;8.20;;;3.65;;
68854;SDS011;69984;-43.570;172.580;2023-05-10T06:45:12;4.90;;;3.58;;
68854;SDS011;69984;-43.570;172.580;2023-05-10T06:47:40;4.88;;;3.33;;
68854;SDS011;69984;-43.570;172.580;2023-05-10T06:50:08;3.85;;;3.40;;
68854;SDS011;69984;-43.570;172.580;2023-05-10T06:52:37;7.68;;;3.47;;
68854;SDS011;69984;-43.570;172.580;2023-05-10T06:55:04;5.18;;;3.50;;
68854;SDS011;69984;-43.570;172.580;2023-05-10T06:57:32;4.82;;;3.35;;
68854;SDS011;69984;-43.570;172.580;2023-05-10T07:00:00;5.38;;;3.40;;
68854;SDS011;69984;-43.570;172.580;2023-05-10T07:02:29;8.27;;;3.10;;
68854;SDS011;69984;-43.570;172.580;2023-05-10T07:04:56;6.82;;;3.05;;
68854;SDS011;69984;-43.570;172.580;2023-05-10T07:07:23;4.82;;;3.20;;
68854;SDS011;69984;-43.570;172.580;2023-05-10T07:09:51;5.32;;;3.50;;
68854;SDS011;69984;-43.570;172.580;2023-05-10T07:12:18;4.53;;;2.60;;
68854;SDS011;69984;-43.570;172.580;2023-05-10T07:14:45;5.57;;;2.55;;
68854;SDS011;69984;-43.570;172.580;2023-05-10T07:17:12;4.15;;;2.97;;
68854;SDS011;69984;-43.570;172.580;2023-05-10T07:19:39;5.05;;;2.53;;
68854;SDS011;69984;-43.570;172.580;2023-05-10T07:22:06;8.68;;;3.83;;
68854;SDS011;69984;-43.570;172.580;2023-05-10T07:24:34;10.40;;;3.80;;
68854;SDS011;69984;-43.570;172.580;2023-05-10T07:27:01;4.63;;;3.03;;
68854;SDS011;69984;-43.570;172.580;2023-05-10T07:29:28;7.15;;;2.35;;
68854;SDS011;69984;-43.570;172.580;2023-05-10T07:31:55;5.22;;;1.77;;
68854;SDS011;69984;-43.570;172.580;2023-05-10T07:34:22;1.70;;;1.52;;
68854;SDS011;69984;-43.570;172.580;2023-05-10T07:36:50;5.95;;;2.13;;
68854;SDS011;69984;-43.570;172.580;2023-05-10T07:39:17;2.70;;;2.50;;
68854;SDS011;69984;-43.570;172.580;2023-05-10T07:41:46;2.60;;;2.28;;
68854;SDS011;69984;-43.570;172.580;2023-05-10T07:44:13;7.07;;;2.60;;
68854;SDS011;69984;-43.570;172.580;2023-05-10T07:46:40;3.05;;;2.58;;
68854;SDS011;69984;-43.570;172.580;2023-05-10T07:49:07;4.05;;;2.88;;
68854;SDS011;69984;-43.570;172.580;2023-05-10T07:51:34;6.65;;;2.42;;
68854;SDS011;69984;-43.570;172.580;2023-05-10T07:54:01;4.00;;;2.30;;
68854;SDS011;69984;-43.570;172.580;2023-05-10T07:56:30;5.47;;;2.47;;
68854;SDS011;69984;-43.570;172.580;2023-05-10T07:59:01;5.75;;;2.78;;
68854;SDS011;69984;-43.570;172.580;2023-05-10T08:01:30;8.68;;;6.18;;
68854;SDS011;69984;-43.570;172.580;2023-05-10T08:03:58;13.85;;;8.38;;
68854;SDS011;69984;-43.570;172.580;2023-05-10T08:06:26;13.38;;;8.73;;
68854;SDS011;69984;-43.570;172.580;2023-05-10T08:08:55;12.77;;;8.00;;
68854;SDS011;69984;-43.570;172.580;2023-05-10T08:11:22;15.95;;;7.72;;
68854;SDS011;69984;-43.570;172.580;2023-05-10T08:13:50;11.02;;;7.43;;
68854;SDS011;69984;-43.570;172.580;2023-05-10T08:16:18;8.90;;;7.07;;
68854;SDS011;69984;-43.570;172.580;2023-05-10T08:18:46;12.57;;;7.20;;
68854;SDS011;69984;-43.570;172.580;2023-05-10T08:21:14;16.40;;;7.78;;
68854;SDS011;69984;-43.570;172.580;2023-05-10T08:23:42;8.85;;;5.85;;
68854;SDS011;69984;-43.570;172.580;2023-05-10T08:26:12;7.60;;;6.00;;
68854;SDS011;69984;-43.570;172.580;2023-05-10T08:28:39;8.38;;;6.40;;
68854;SDS011;69984;-43.570;172.580;2023-05-10T08:31:06;8.23;;;6.25;;
68854;SDS011;69984;-43.570;172.580;2023-05-10T08:33:36;5.75;;;3.78;;
68854;SDS011;69984;-43.570;172.580;2023-05-10T08:36:03;4.85;;;3.70;;
68854;SDS011;69984;-43.570;172.580;2023-05-10T08:38:30;4.97;;;3.90;;
68854;SDS011;69984;-43.570;172.580;2023-05-10T08:40:57;5.57;;;3.97;;
68854;SDS011;69984;-43.570;172.580;2023-05-10T08:43:26;5.53;;;4.38;;
68854;SDS011;69984;-43.570;172.580;2023-05-10T08:45:59;6.05;;;4.80;;
68854;SDS011;69984;-43.570;172.580;2023-05-10T08:48:29;6.85;;;5.35;;
68854;SDS011;69984;-43.570;172.580;2023-05-10T08:50:57;5.00;;;4.53;;
68854;SDS011;69984;-43.570;172.580;2023-05-10T08:53:28;6.00;;;4.18;;
68854;SDS011;69984;-43.570;172.580;2023-05-10T08:55:57;5.22;;;4.72;;
68854;SDS011;69984;-43.570;172.580;2023-05-10T08:58:24;8.18;;;4.18;;
68854;SDS011;69984;-43.570;172.580;2023-05-10T09:00:52;6.47;;;4.80;;
68854;SDS011;69984;-43.570;172.580;2023-05-10T09:03:19;7.15;;;5.10;;
68854;SDS011;69984;-43.570;172.580;2023-05-10T09:05:47;5.85;;;5.22;;
68854;SDS011;69984;-43.570;172.580;2023-05-10T09:08:15;5.05;;;4.55;;
68854;SDS011;69984;-43.570;172.580;2023-05-10T09:10:43;7.00;;;4.70;;
68854;SDS011;69984;-43.570;172.580;2023-05-10T09:13:13;6.60;;;4.03;;
68854;SDS011;69984;-43.570;172.580;2023-05-10T09:15:41;6.80;;;4.13;;
68854;SDS011;69984;-43.570;172.580;2023-05-10T09:18:09;7.18;;;4.70;;
68854;SDS011;69984;-43.570;172.580;2023-05-10T09:20:36;17.63;;;10.43;;
68854;SDS011;69984;-43.570;172.580;2023-05-10T09:23:04;13.32;;;8.52;;
68854;SDS011;69984;-43.570;172.580;2023-05-10T09:25:31;11.05;;;8.25;;
68854;SDS011;69984;-43.570;172.580;2023-05-10T09:28:07;11.65;;;6.07;;
68854;SDS011;69984;-43.570;172.580;2023-05-10T09:30:35;6.85;;;4.68;;
68854;SDS011;69984;-43.570;172.580;2023-05-10T09:33:02;7.68;;;5.30;;
68854;SDS011;69984;-43.570;172.580;2023-05-10T09:35:30;9.38;;;5.85;;
68854;SDS011;69984;-43.570;172.580;2023-05-10T09:38:00;11.75;;;7.00;;
68854;SDS011;69984;-43.570;172.580;2023-05-10T09:40:30;13.07;;;7.50;;
68854;SDS011;69984;-43.570;172.580;2023-05-10T09:42:59;16.95;;;9.18;;
68854;SDS011;69984;-43.570;172.580;2023-05-10T09:47:55;21.85;;;11.23;;
68854;SDS011;69984;-43.570;172.580;2023-05-10T09:50:23;21.60;;;10.75;;
68854;SDS011;69984;-43.570;172.580;2023-05-10T09:52:54;15.52;;;9.95;;
68854;SDS011;69984;-43.570;172.580;2023-05-10T09:55:39;29.15;;;11.55;;
68854;SDS011;69984;-43.570;172.580;2023-05-10T09:58:11;15.05;;;6.13;;
68854;SDS011;69984;-43.570;172.580;2023-05-10T10:00:40;6.22;;;4.50;;
68854;SDS011;69984;-43.570;172.580;2023-05-10T10:03:14;11.70;;;4.20;;
68854;SDS011;69984;-43.570;172.580;2023-05-10T10:05:43;5.20;;;2.97;;
68854;SDS011;69984;-43.570;172.580;2023-05-10T10:08:11;2.78;;;2.55;;
68854;SDS011;69984;-43.570;172.580;2023-05-10T10:10:39;3.72;;;2.60;;
68854;SDS011;69984;-43.570;172.580;2023-05-10T10:13:09;7.70;;;1.88;;
68854;SDS011;69984;-43.570;172.580;2023-05-10T10:15:36;1.33;;;1.23;;
68854;SDS011;69984;-43.570;172.580;2023-05-10T10:18:04;2.42;;;1.45;;
68854;SDS011;69984;-43.570;172.580;2023-05-10T10:20:32;2.35;;;1.20;;
68854;SDS011;69984;-43.570;172.580;2023-05-10T10:22:59;2.00;;;1.13;;
68854;SDS011;69984;-43.570;172.580;2023-05-10T10:25:27;1.27;;;0.73;;
68854;SDS011;69984;-43.570;172.580;2023-05-10T10:28:15;1.05;;;0.50;;
68854;SDS011;69984;-43.570;172.580;2023-05-10T10:30:43;0.90;;;0.43;;
68854;SDS011;69984;-43.570;172.580;2023-05-10T10:35:53;3.88;;;0.30;;
68854;SDS011;69984;-43.570;172.580;2023-05-10T10:38:21;7.25;;;1.00;;
68854;SDS011;69984;-43.570;172.580;2023-05-10T10:40:48;2.05;;;0.50;;
68854;SDS011;69984;-43.570;172.580;2023-05-10T10:43:29;3.38;;;0.52;;
68854;SDS011;69984;-43.570;172.580;2023-05-10T10:49:25;2.05;;;0.20;;
68854;SDS011;69984;-43.570;172.580;2023-05-10T10:51:39;5.25;;;0.50;;
68854;SDS011;69984;-43.570;172.580;2023-05-10T10:54:28;2.92;;;0.65;;
68854;SDS011;69984;-43.570;172.580;2023-05-10T10:57:18;5.00;;;1.05;;
68854;SDS011;69984;-43.570;172.580;2023-05-10T10:59:44;4.63;;;0.52;;
68854;SDS011;69984;-43.570;172.580;2023-05-10T11:08:15;1.63;;;0.30;;
68854;SDS011;69984;-43.570;172.580;2023-05-10T11:10:50;1.80;;;0.30;;
68854;SDS011;69984;-43.570;172.580;2023-05-10T11:13:40;8.00;;;0.93;;
68854;SDS011;69984;-43.570;172.580;2023-05-10T11:16:13;2.63;;;0.30;;
68854;SDS011;69984;-43.570;172.580;2023-05-10T11:18:58;3.25;;;0.75;;
68854;SDS011;69984;-43.570;172.580;2023-05-10T11:21:28;6.57;;;0.47;;
68854;SDS011;69984;-43.570;172.580;2023-05-10T11:23:57;9.05;;;0.80;;
68854;SDS011;69984;-43.570;172.580;2023-05-10T11:26:29;4.05;;;0.95;;
68854;SDS011;69984;-43.570;172.580;2023-05-10T11:28:58;5.32;;;0.63;;
68854;SDS011;69984;-43.570;172.580;2023-05-10T11:31:27;8.00;;;1.10;;
68854;SDS011;69984;-43.570;172.580;2023-05-10T11:33:56;9.88;;;2.47;;
68854;SDS011;69984;-43.570;172.580;2023-05-10T11:36:25;9.00;;;1.90;;
68854;SDS011;69984;-43.570;172.580;2023-05-10T11:38:54;6.90;;;1.80;;
68854;SDS011;69984;-43.570;172.580;2023-05-10T11:41:23;2.35;;;1.20;;
68854;SDS011;69984;-43.570;172.580;2023-05-10T11:43:51;5.47;;;1.58;;
68854;SDS011;69984;-43.570;172.580;2023-05-10T11:46:20;3.92;;;1.52;;
68854;SDS011;69984;-43.570;172.580;2023-05-10T11:48:49;4.28;;;1.55;;
68854;SDS011;69984;-43.570;172.580;2023-05-10T11:51:22;9.50;;;1.60;;
68854;SDS011;69984;-43.570;172.580;2023-05-10T11:53:50;8.38;;;1.23;;
68854;SDS011;69984;-43.570;172.580;2023-05-10T11:56:20;5.28;;;0.90;;
68854;SDS011;69984;-43.570;172.580;2023-05-10T11:58:55;5.18;;;1.20;;
68854;SDS011;69984;-43.570;172.580;2023-05-10T12:01:27;8.73;;;1.05;;
68854;SDS011;69984;-43.570;172.580;2023-05-10T12:03:55;9.68;;;1.40;;
68854;SDS011;69984;-43.570;172.580;2023-05-10T12:06:29;6.25;;;1.35;;
68854;SDS011;69984;-43.570;172.580;2023-05-10T12:08:57;7.72;;;2.15;;
68854;SDS011;69984;-43.570;172.580;2023-05-10T12:11:26;7.35;;;1.13;;
68854;SDS011;69984;-43.570;172.580;2023-05-10T12:13:54;5.25;;;1.45;;
68854;SDS011;69984;-43.570;172.580;2023-05-10T12:16:23;5.25;;;1.00;;
68854;SDS011;69984;-43.570;172.580;2023-05-10T12:18:54;8.85;;;1.42;;
68854;SDS011;69984;-43.570;172.580;2023-05-10T12:21:23;10.43;;;1.83;;
68854;SDS011;69984;-43.570;172.580;2023-05-10T12:24:02;4.72;;;1.30;;
68854;SDS011;69984;-43.570;172.580;2023-05-10T12:26:32;2.85;;;0.77;;
68854;SDS011;69984;-43.570;172.580;2023-05-10T12:29:22;5.32;;;1.30;;
68854;SDS011;69984;-43.570;172.580;2023-05-10T12:31:55;9.10;;;1.20;;
68854;SDS011;69984;-43.570;172.580;2023-05-10T12:34:24;9.77;;;0.75;;
68854;SDS011;69984;-43.570;172.580;2023-05-10T12:36:59;10.00;;;2.00;;
68854;SDS011;69984;-43.570;172.580;2023-05-10T12:39:37;5.50;;;0.60;;
68854;SDS011;69984;-43.570;172.580;2023-05-10T12:42:08;3.92;;;0.80;;
68854;SDS011;69984;-43.570;172.580;2023-05-10T12:44:35;5.13;;;0.90;;
68854;SDS011;69984;-43.570;172.580;2023-05-10T12:47:03;0.93;;;0.40;;
68854;SDS011;69984;-43.570;172.580;2023-05-10T12:49:31;3.13;;;1.38;;
68854;SDS011;69984;-43.570;172.580;2023-05-10T12:51:59;1.85;;;0.50;;
68854;SDS011;69984;-43.570;172.580;2023-05-10T12:54:26;1.42;;;0.40;;
68854;SDS011;69984;-43.570;172.580;2023-05-10T12:56:53;4.07;;;0.35;;
68854;SDS011;69984;-43.570;172.580;2023-05-10T12:59:20;0.60;;;0.40;;
68854;SDS011;69984;-43.570;172.580;2023-05-10T13:01:48;2.42;;;0.52;;
68854;SDS011;69984;-43.570;172.580;2023-05-10T13:04:15;2.70;;;0.63;;
68854;SDS011;69984;-43.570;172.580;2023-05-10T13:06:42;12.05;;;1.20;;
68854;SDS011;69984;-43.570;172.580;2023-05-10T13:09:09;3.85;;;0.80;;
68854;SDS011;69984;-43.570;172.580;2023-05-10T13:11:36;5.35;;;1.20;;
68854;SDS011;69984;-43.570;172.580;2023-05-10T13:14:04;2.33;;;0.90;;
68854;SDS011;69984;-43.570;172.580;2023-05-10T13:16:31;0.82;;;0.55;;
68854;SDS011;69984;-43.570;172.580;2023-05-10T13:18:58;4.22;;;0.60;;
68854;SDS011;69984;-43.570;172.580;2023-05-10T13:21:25;1.10;;;0.57;;
68854;SDS011;69984;-43.570;172.580;2023-05-10T13:23:53;1.08;;;0.50;;
68854;SDS011;69984;-43.570;172.580;2023-05-10T13:26:21;1.10;;;0.30;;
68854;SDS011;69984;-43.570;172.580;2023-05-10T13:28:48;3.20;;;0.40;;
68854;SDS011;69984;-43.570;172.580;2023-05-10T13:31:17;1.95;;;0.50;;
68854;SDS011;69984;-43.570;172.580;2023-05-10T13:33:44;1.52;;;0.50;;
68854;SDS011;69984;-43.570;172.580;2023-05-10T13:36:11;2.72;;;0.60;;
68854;SDS011;69984;-43.570;172.580;2023-05-10T13:38:38;1.60;;;0.55;;
68854;SDS011;69984;-43.570;172.580;2023-05-10T13:41:05;2.47;;;0.63;;
68854;SDS011;69984;-43.570;172.580;2023-05-10T13:43:32;3.03;;;0.70;;
68854;SDS011;69984;-43.570;172.580;2023-05-10T13:46:00;3.95;;;0.82;;
68854;SDS011;69984;-43.570;172.580;2023-05-10T13:48:28;2.67;;;0.90;;
68854;SDS011;69984;-43.570;172.580;2023-05-10T13:50:55;1.52;;;0.45;;
68854;SDS011;69984;-43.570;172.580;2023-05-10T13:53:22;1.35;;;0.57;;
68854;SDS011;69984;-43.570;172.580;2023-05-10T13:55:49;7.00;;;0.30;;
68854;SDS011;69984;-43.570;172.580;2023-05-10T13:58:16;0.90;;;0.20;;
68854;SDS011;69984;-43.570;172.580;2023-05-10T14:00:43;0.88;;;0.30;;
68854;SDS011;69984;-43.570;172.580;2023-05-10T14:03:11;0.57;;;0.25;;
68854;SDS011;69984;-43.570;172.580;2023-05-10T14:05:38;1.90;;;0.45;;
68854;SDS011;69984;-43.570;172.580;2023-05-10T14:08:05;1.10;;;0.40;;
68854;SDS011;69984;-43.570;172.580;2023-05-10T14:10:32;1.67;;;0.20;;
68854;SDS011;69984;-43.570;172.580;2023-05-10T14:13:00;0.43;;;0.10;;
68854;SDS011;69984;-43.570;172.580;2023-05-10T14:15:28;1.15;;;0.32;;
68854;SDS011;69984;-43.570;172.580;2023-05-10T14:17:55;0.60;;;0.10;;
68854;SDS011;69984;-43.570;172.580;2023-05-10T14:20:22;0.20;;;0.08;;
68854;SDS011;69984;-43.570;172.580;2023-05-10T14:22:49;0.05;;;0.00;;
68854;SDS011;69984;-43.570;172.580;2023-05-10T14:25:17;1.13;;;0.00;;
68854;SDS011;69984;-43.570;172.580;2023-05-10T14:27:44;1.50;;;0.03;;
68854;SDS011;69984;-43.570;172.580;2023-05-10T14:30:11;0.35;;;0.20;;
68854;SDS011;69984;-43.570;172.580;2023-05-10T14:32:39;0.00;;;0.00;;
68854;SDS011;69984;-43.570;172.580;2023-05-10T14:35:06;0.32;;;0.30;;
68854;SDS011;69984;-43.570;172.580;2023-05-10T14:37:33;0.25;;;0.20;;
68854;SDS011;69984;-43.570;172.580;2023-05-10T14:40:00;1.65;;;0.10;;
68854;SDS011;69984;-43.570;172.580;2023-05-10T14:42:29;0.00;;;0.00;;
68854;SDS011;69984;-43.570;172.580;2023-05-10T14:44:56;0.00;;;0.00;;
68854;SDS011;69984;-43.570;172.580;2023-05-10T14:47:24;0.20;;;0.00;;
68854;SDS011;69984;-43.570;172.580;2023-05-10T14:49:51;0.08;;;0.00;;
68854;SDS011;69984;-43.570;172.580;2023-05-10T14:52:18;0.05;;;0.00;;
68854;SDS011;69984;-43.570;172.580;2023-05-10T14:54:45;0.38;;;0.00;;
68854;SDS011;69984;-43.570;172.580;2023-05-10T14:57:12;0.00;;;0.00;;
68854;SDS011;69984;-43.570;172.580;2023-05-10T14:59:39;0.00;;;0.00;;